Terminal Aerodrome Forecast
Issued by NWS

Current Version | Previous Version | Graphics & Text | Print | Product List | Glossary On
Versions: 1 2 3 4 5 6 7 8 9 10 11 12 13 14 15 16 17 18 19
828
FTUS41 KPBZ 272323
TAFHLG
TAF
KHLG 272323Z 2800/2824 VRB03KT P6SM BKN100
     FM280900 13003KT 3SM -SHRA BR OVC050
     FM281100 20003KT 2SM -SHRA BR OVC015
     FM281600 31005KT 3SM -SHRA BR OVC008
     FM282000 33009KT P6SM OVC010=

USA.gov is the U.S. government's official web portal to all federal, state and local government web resources and services.